createdAt,value
2018-07-07T00:00:53.754Z,0.00
2018-07-07T00:01:53.615Z,0.00
2018-07-07T00:02:53.601Z,0.00
2018-07-07T00:03:53.635Z,0.00
2018-07-07T00:04:53.575Z,0.00
2018-07-07T00:05:53.560Z,0.00
2018-07-07T00:06:53.544Z,0.00
2018-07-07T00:07:53.530Z,0.00
2018-07-07T00:08:53.516Z,0.00
2018-07-07T00:09:53.506Z,0.00
2018-07-07T00:10:53.488Z,0.00
2018-07-07T00:11:53.475Z,0.00
2018-07-07T00:12:53.459Z,0.00
2018-07-07T00:13:53.445Z,0.00
2018-07-07T00:14:53.440Z,0.00
2018-07-07T00:15:53.415Z,0.00
2018-07-07T00:16:53.407Z,0.00
2018-07-07T00:17:53.388Z,0.00
2018-07-07T00:18:53.375Z,0.00
2018-07-07T00:19:53.365Z,0.00
2018-07-07T00:20:53.346Z,0.00
2018-07-07T00:21:53.335Z,0.00
2018-07-07T00:22:53.373Z,0.00
2018-07-07T00:23:53.303Z,0.00
2018-07-07T00:24:53.295Z,0.00
2018-07-07T00:25:53.276Z,0.00
2018-07-07T00:26:53.264Z,0.00
2018-07-07T00:27:53.248Z,0.00
2018-07-07T00:28:53.235Z,0.00
2018-07-07T00:29:53.224Z,0.00
2018-07-07T00:30:53.213Z,0.00
2018-07-07T00:31:53.190Z,0.00
2018-07-07T00:32:53.174Z,0.00
2018-07-07T00:33:53.184Z,0.00
2018-07-07T00:34:53.149Z,0.00
2018-07-07T00:35:53.135Z,0.00
2018-07-07T00:36:53.126Z,0.00
2018-07-07T00:37:53.109Z,0.00
2018-07-07T00:38:53.107Z,0.00
2018-07-07T00:39:53.079Z,0.00
2018-07-07T00:40:53.063Z,0.00
2018-07-07T00:41:53.050Z,0.00
2018-07-07T00:42:53.035Z,0.00
2018-07-07T00:43:53.022Z,0.00
2018-07-07T00:44:53.006Z,0.00
2018-07-07T00:45:52.993Z,0.00
2018-07-07T00:46:52.985Z,0.00
2018-07-07T00:47:52.966Z,0.00
2018-07-07T00:48:52.956Z,0.00
2018-07-07T00:49:52.935Z,0.00
2018-07-07T00:50:52.920Z,0.00
2018-07-07T00:51:52.906Z,0.00
2018-07-07T00:52:52.896Z,0.00
2018-07-07T00:53:52.881Z,0.00
2018-07-07T00:54:52.867Z,0.00
2018-07-07T00:55:52.852Z,0.00
2018-07-07T00:56:52.836Z,0.00
2018-07-07T00:57:52.830Z,0.00
2018-07-07T00:58:52.811Z,0.00
2018-07-07T00:59:52.804Z,0.00
2018-07-07T01:00:52.781Z,0.00
2018-07-07T01:01:52.767Z,0.00
2018-07-07T01:02:52.756Z,0.00
2018-07-07T01:03:52.740Z,0.00
2018-07-07T01:04:52.726Z,0.00
2018-07-07T01:05:52.761Z,0.00
2018-07-07T01:06:52.704Z,0.00
2018-07-07T01:07:52.679Z,0.00
2018-07-07T01:08:52.669Z,0.00
2018-07-07T01:09:52.652Z,0.00
2018-07-07T01:10:52.638Z,0.00
2018-07-07T01:11:52.625Z,0.00
2018-07-07T01:12:52.613Z,0.00
2018-07-07T01:13:52.598Z,0.00
2018-07-07T01:14:52.588Z,0.00
2018-07-07T01:15:52.566Z,0.00
2018-07-07T01:16:52.555Z,0.00
2018-07-07T01:17:52.542Z,0.00
2018-07-07T01:18:52.528Z,0.00
2018-07-07T01:19:52.510Z,0.00
2018-07-07T01:20:52.497Z,0.00
2018-07-07T01:21:52.582Z,0.00
2018-07-07T01:22:52.474Z,0.00
2018-07-07T01:23:52.451Z,0.00
2018-07-07T01:24:52.438Z,0.00
2018-07-07T01:25:52.423Z,0.00
2018-07-07T01:26:52.409Z,0.00
2018-07-07T01:27:52.395Z,0.00
2018-07-07T01:28:52.382Z,0.00
2018-07-07T01:29:52.366Z,0.00
2018-07-07T01:30:52.356Z,0.00
2018-07-07T01:31:52.341Z,0.00
2018-07-07T01:32:52.325Z,0.00
2018-07-07T01:33:52.307Z,0.00
2018-07-07T01:34:52.297Z,0.00
2018-07-07T01:35:52.285Z,0.00
2018-07-07T01:36:52.269Z,0.00
2018-07-07T01:37:52.269Z,0.00
2018-07-07T01:38:52.242Z,0.00
2018-07-07T01:39:52.225Z,0.00
2018-07-07T01:40:52.210Z,0.00
2018-07-07T01:41:52.198Z,0.00
2018-07-07T01:42:52.186Z,0.00
2018-07-07T01:43:52.166Z,0.00
2018-07-07T01:44:52.156Z,0.00
2018-07-07T01:45:52.263Z,0.00
2018-07-07T01:46:52.126Z,0.00
2018-07-07T01:47:52.110Z,0.00
2018-07-07T01:48:52.096Z,0.00
2018-07-07T01:49:52.082Z,0.00
2018-07-07T01:50:52.065Z,0.00
2018-07-07T01:51:52.054Z,0.00
2018-07-07T01:52:52.035Z,0.00
2018-07-07T01:53:52.024Z,0.00
2018-07-07T01:54:52.006Z,0.00
2018-07-07T01:55:52.004Z,0.00
2018-07-07T01:56:51.978Z,0.00
2018-07-07T01:57:51.963Z,0.00
2018-07-07T01:58:51.951Z,0.00
2018-07-07T01:59:51.935Z,0.00
2018-07-07T02:00:51.923Z,0.00
2018-07-07T02:01:51.998Z,0.00
2018-07-07T02:02:51.899Z,0.00
2018-07-07T02:03:51.883Z,0.00
2018-07-07T02:04:51.963Z,0.00
2018-07-07T02:05:51.856Z,0.00
2018-07-07T02:06:51.835Z,0.00
2018-07-07T02:07:51.820Z,0.00
2018-07-07T02:08:51.813Z,0.00
2018-07-07T02:09:51.788Z,0.00
2018-07-07T02:10:51.775Z,0.00
2018-07-07T02:11:51.764Z,0.00
2018-07-07T02:12:51.745Z,0.00
2018-07-07T02:13:51.733Z,0.00
2018-07-07T02:14:51.717Z,0.00
2018-07-07T02:15:51.702Z,0.00
2018-07-07T02:16:51.689Z,0.00
2018-07-07T02:17:51.676Z,0.00
2018-07-07T02:18:51.702Z,0.00
2018-07-07T02:19:51.646Z,0.00
2018-07-07T02:20:51.645Z,0.00
2018-07-07T02:21:51.623Z,0.00
2018-07-07T02:22:51.606Z,0.00
2018-07-07T02:23:51.636Z,0.00
2018-07-07T02:24:51.576Z,0.00
2018-07-07T02:25:51.560Z,0.00
2018-07-07T02:26:51.544Z,0.00
2018-07-07T02:27:51.528Z,0.00
2018-07-07T02:28:51.518Z,0.00
2018-07-07T02:29:51.504Z,0.00
2018-07-07T02:30:51.487Z,0.00
2018-07-07T02:31:51.521Z,0.00
2018-07-07T02:32:51.459Z,0.00
2018-07-07T02:33:51.446Z,0.00
2018-07-07T02:34:51.428Z,0.00
2018-07-07T02:35:51.414Z,0.00
2018-07-07T02:36:51.398Z,0.00
2018-07-07T02:37:51.386Z,0.00
2018-07-07T02:38:51.370Z,0.00
2018-07-07T02:39:51.356Z,0.00
2018-07-07T02:40:51.346Z,0.00
2018-07-07T02:41:51.333Z,0.00
2018-07-07T02:42:51.315Z,0.00
2018-07-07T02:43:51.307Z,0.00
2018-07-07T02:44:51.289Z,0.00
2018-07-07T02:45:51.267Z,0.00
2018-07-07T02:46:51.257Z,0.00
2018-07-07T02:47:51.266Z,0.00
2018-07-07T02:48:51.223Z,0.00
2018-07-07T02:49:51.210Z,0.00
2018-07-07T02:50:51.198Z,0.00
2018-07-07T02:51:51.178Z,0.00
2018-07-07T02:52:51.164Z,4.00
2018-07-07T02:53:51.164Z,4.00
2018-07-07T02:54:51.135Z,0.00
2018-07-07T02:55:51.126Z,0.00
2018-07-07T02:56:51.109Z,0.00
2018-07-07T02:57:51.091Z,4.00
2018-07-07T02:58:51.079Z,4.00
2018-07-07T02:59:51.065Z,0.00
2018-07-07T03:00:51.049Z,4.00
2018-07-07T03:01:51.036Z,4.00
2018-07-07T03:02:51.020Z,4.00
2018-07-07T03:03:51.009Z,4.00
2018-07-07T03:04:50.992Z,4.00
2018-07-07T03:05:50.976Z,4.00
2018-07-07T03:06:51.115Z,4.00
2018-07-07T03:07:50.950Z,4.00
2018-07-07T03:08:50.938Z,4.00
2018-07-07T03:09:50.918Z,4.00
2018-07-07T03:10:50.902Z,4.00
2018-07-07T03:11:50.890Z,8.00
2018-07-07T03:12:50.880Z,8.00
2018-07-07T03:13:50.882Z,8.00
2018-07-07T03:14:50.850Z,8.00
2018-07-07T03:15:50.833Z,12.00
2018-07-07T03:16:50.822Z,12.00
2018-07-07T03:17:50.801Z,12.00
2018-07-07T03:18:50.786Z,12.00
2018-07-07T03:19:50.777Z,12.00
2018-07-07T03:20:50.759Z,16.00
2018-07-07T03:21:50.755Z,16.00
2018-07-07T03:22:50.727Z,16.00
2018-07-07T03:23:50.713Z,16.00
2018-07-07T03:24:50.698Z,16.00
2018-07-07T03:25:50.689Z,20.00
2018-07-07T03:26:50.667Z,20.00
2018-07-07T03:27:50.657Z,20.00
2018-07-07T03:28:50.638Z,24.00
2018-07-07T03:29:50.625Z,24.00
2018-07-07T03:30:50.714Z,28.00
2018-07-07T03:31:50.597Z,28.00
2018-07-07T03:32:50.583Z,32.00
2018-07-07T03:33:50.613Z,28.00
2018-07-07T03:34:50.551Z,32.00
2018-07-07T03:35:50.533Z,32.00
2018-07-07T03:36:50.523Z,36.00
2018-07-07T03:37:50.507Z,36.00
2018-07-07T03:38:50.490Z,36.00
2018-07-07T03:39:50.474Z,40.00
2018-07-07T03:40:50.466Z,40.00
2018-07-07T03:41:50.448Z,40.00
2018-07-07T03:42:50.434Z,44.00
2018-07-07T03:43:50.419Z,44.00
2018-07-07T03:44:50.455Z,44.00
2018-07-07T03:45:50.388Z,48.00
2018-07-07T03:46:50.475Z,48.00
2018-07-07T03:47:50.358Z,48.00
2018-07-07T03:48:50.344Z,52.00
2018-07-07T03:49:50.332Z,56.00
2018-07-07T03:50:50.318Z,52.00
2018-07-07T03:51:50.305Z,56.00
2018-07-07T03:52:50.286Z,60.00
2018-07-07T03:53:50.270Z,56.00
2018-07-07T03:54:50.258Z,60.00
2018-07-07T03:55:50.242Z,64.00
2018-07-07T03:56:50.226Z,68.00
2018-07-07T03:57:50.218Z,76.00
2018-07-07T03:58:50.223Z,88.00
2018-07-07T03:59:50.182Z,92.00
2018-07-07T04:00:50.168Z,100.00
2018-07-07T04:01:50.150Z,108.00
2018-07-07T04:02:50.143Z,108.00
2018-07-07T04:03:50.121Z,112.00
2018-07-07T04:04:50.109Z,116.00
2018-07-07T04:05:50.097Z,116.00
2018-07-07T04:06:50.076Z,120.00
2018-07-07T04:07:50.063Z,124.00
2018-07-07T04:08:50.045Z,120.00
2018-07-07T04:09:50.032Z,124.00
2018-07-07T04:10:50.016Z,124.00
2018-07-07T04:11:50.000Z,124.00
2018-07-07T04:12:49.986Z,128.00
2018-07-07T04:13:49.983Z,128.00
2018-07-07T04:14:49.956Z,124.00
2018-07-07T04:15:49.942Z,128.00
2018-07-07T04:16:50.027Z,132.00
2018-07-07T04:17:49.913Z,136.00
2018-07-07T04:18:49.895Z,140.00
2018-07-07T04:19:49.880Z,136.00
2018-07-07T04:20:49.866Z,140.00
2018-07-07T04:21:49.856Z,148.00
2018-07-07T04:22:49.840Z,152.00
2018-07-07T04:23:49.834Z,152.00
2018-07-07T04:24:49.811Z,152.00
2018-07-07T04:25:49.796Z,160.00
2018-07-07T04:26:49.778Z,168.00
2018-07-07T04:27:49.763Z,172.00
2018-07-07T04:28:49.747Z,172.00
2018-07-07T04:29:49.731Z,180.00
2018-07-07T04:30:49.718Z,180.00
2018-07-07T04:31:49.701Z,180.00
2018-07-07T04:32:49.688Z,184.00
2018-07-07T04:33:49.676Z,188.00
2018-07-07T04:34:49.656Z,192.00
2018-07-07T04:35:49.693Z,200.00
2018-07-07T04:36:49.628Z,196.00
2018-07-07T04:37:49.615Z,200.00
2018-07-07T04:38:49.604Z,204.00
2018-07-07T04:39:49.580Z,204.00
2018-07-07T04:40:49.567Z,208.00
2018-07-07T04:41:49.556Z,212.00
2018-07-07T04:42:49.536Z,212.00
2018-07-07T04:43:49.526Z,212.00
2018-07-07T04:44:49.508Z,216.00
2018-07-07T04:45:49.531Z,220.00
2018-07-07T04:46:49.477Z,224.00
2018-07-07T04:47:49.462Z,224.00
2018-07-07T04:48:49.445Z,228.00
2018-07-07T04:49:49.431Z,228.00
2018-07-07T04:50:49.416Z,232.00
2018-07-07T04:51:49.520Z,236.00
2018-07-07T04:52:49.386Z,240.00
2018-07-07T04:53:49.369Z,244.00
2018-07-07T04:54:49.356Z,244.00
2018-07-07T04:55:49.343Z,248.00
2018-07-07T04:56:49.326Z,248.00
2018-07-07T04:57:49.316Z,252.00
2018-07-07T04:58:49.295Z,256.00
2018-07-07T04:59:49.432Z,260.00
2018-07-07T05:00:49.266Z,264.00
2018-07-07T05:01:49.255Z,268.00
2018-07-07T05:02:49.242Z,268.00
2018-07-07T05:03:49.225Z,276.00
2018-07-07T05:04:49.208Z,280.00
2018-07-07T05:05:49.198Z,284.00
2018-07-07T05:06:49.179Z,284.00
2018-07-07T05:07:49.161Z,288.00
2018-07-07T05:08:49.143Z,292.00
2018-07-07T05:09:49.130Z,296.00
2018-07-07T05:10:49.131Z,296.00
2018-07-07T05:11:49.106Z,300.00
2018-07-07T05:12:49.090Z,304.00
2018-07-07T05:13:49.076Z,304.00
2018-07-07T05:14:49.054Z,312.00
2018-07-07T05:15:49.047Z,316.00
2018-07-07T05:16:49.028Z,316.00
2018-07-07T05:17:49.009Z,320.00
2018-07-07T05:18:49.046Z,328.00
2018-07-07T05:19:48.978Z,328.00
2018-07-07T05:20:48.962Z,332.00
2018-07-07T05:21:48.954Z,336.00
2018-07-07T05:22:48.935Z,340.00
2018-07-07T05:23:48.922Z,344.00
2018-07-07T05:24:48.907Z,344.00
2018-07-07T05:25:48.889Z,348.00
2018-07-07T05:26:48.875Z,348.00
2018-07-07T05:27:48.859Z,352.00
2018-07-07T05:28:48.843Z,352.00
2018-07-07T05:29:48.826Z,352.00
2018-07-07T05:30:48.813Z,356.00
2018-07-07T05:31:48.860Z,360.00
2018-07-07T05:32:48.786Z,360.00
2018-07-07T05:33:48.771Z,360.00
2018-07-07T05:34:48.756Z,364.00
2018-07-07T05:35:48.792Z,364.00
2018-07-07T05:36:48.724Z,368.00
2018-07-07T05:37:48.713Z,372.00
2018-07-07T05:38:48.702Z,376.00
2018-07-07T05:39:48.679Z,376.00
2018-07-07T05:40:48.663Z,376.00
2018-07-07T05:41:48.654Z,380.00
2018-07-07T05:42:48.635Z,384.00
2018-07-07T05:43:48.625Z,384.00
2018-07-07T05:44:48.605Z,388.00
2018-07-07T05:45:48.595Z,388.00
2018-07-07T05:46:48.578Z,392.00
2018-07-07T05:47:48.560Z,396.00
2018-07-07T05:48:48.541Z,400.00
2018-07-07T05:49:48.536Z,396.00
2018-07-07T05:50:48.518Z,396.00
2018-07-07T05:51:48.503Z,400.00
2018-07-07T05:52:48.483Z,408.00
2018-07-07T05:53:48.471Z,408.00
2018-07-07T05:54:48.455Z,412.00
2018-07-07T05:55:48.442Z,416.00
2018-07-07T05:56:48.426Z,420.00
2018-07-07T05:57:48.408Z,420.00
2018-07-07T05:58:48.394Z,424.00
2018-07-07T05:59:48.385Z,428.00
2018-07-07T06:00:48.367Z,428.00
2018-07-07T06:01:48.400Z,432.00
2018-07-07T06:02:48.338Z,436.00
2018-07-07T06:03:48.320Z,444.00
2018-07-07T06:04:48.304Z,444.00
2018-07-07T06:05:48.290Z,444.00
2018-07-07T06:06:48.274Z,452.00
2018-07-07T06:07:48.257Z,452.00
2018-07-07T06:08:48.243Z,460.00
2018-07-07T06:09:48.235Z,464.00
2018-07-07T06:10:48.215Z,468.00
2018-07-07T06:11:48.202Z,464.00
2018-07-07T06:12:48.182Z,472.00
2018-07-07T06:13:48.171Z,472.00
2018-07-07T06:14:48.154Z,480.00
2018-07-07T06:15:48.138Z,484.00
2018-07-07T06:16:48.125Z,492.00
2018-07-07T06:17:48.113Z,492.00
2018-07-07T06:18:48.096Z,500.00
2018-07-07T06:19:48.086Z,504.00
2018-07-07T06:20:48.124Z,504.00
2018-07-07T06:21:48.051Z,508.00
2018-07-07T06:22:48.052Z,512.00
2018-07-07T06:23:48.074Z,524.00
2018-07-07T06:24:48.036Z,528.00
2018-07-07T06:25:47.991Z,528.00
2018-07-07T06:26:48.069Z,532.00
2018-07-07T06:27:47.967Z,532.00
2018-07-07T06:28:47.948Z,540.00
2018-07-07T06:29:47.933Z,544.00
2018-07-07T06:30:47.919Z,548.00
2018-07-07T06:31:47.901Z,556.00
2018-07-07T06:32:47.885Z,564.00
2018-07-07T06:33:47.883Z,564.00
2018-07-07T06:34:47.872Z,572.00
2018-07-07T06:35:47.841Z,576.00
2018-07-07T06:36:47.830Z,588.00
2018-07-07T06:37:47.817Z,592.00
2018-07-07T06:38:47.800Z,604.00
2018-07-07T06:39:47.786Z,612.00
2018-07-07T06:40:47.771Z,616.00
2018-07-07T06:41:47.758Z,624.00
2018-07-07T06:42:47.748Z,632.00
2018-07-07T06:43:47.790Z,644.00
2018-07-07T06:44:47.719Z,652.00
2018-07-07T06:45:47.703Z,660.00
2018-07-07T06:46:47.682Z,664.00
2018-07-07T06:47:47.720Z,672.00
2018-07-07T06:48:47.646Z,680.00
2018-07-07T06:49:47.636Z,688.00
2018-07-07T06:50:47.626Z,696.00
2018-07-07T06:51:47.610Z,704.00
2018-07-07T06:52:47.595Z,716.00
2018-07-07T06:53:47.642Z,724.00
2018-07-07T06:54:47.559Z,728.00
2018-07-07T06:55:47.552Z,736.00
2018-07-07T06:56:47.536Z,748.00
2018-07-07T06:57:47.517Z,756.00
2018-07-07T06:58:47.505Z,768.00
2018-07-07T06:59:47.541Z,784.00
2018-07-07T07:00:47.480Z,800.00
2018-07-07T07:01:47.464Z,808.00
2018-07-07T07:02:47.448Z,816.00
2018-07-07T07:03:47.465Z,816.00
2018-07-07T07:04:47.417Z,828.00
2018-07-07T07:05:47.403Z,832.00
2018-07-07T07:06:47.389Z,844.00
2018-07-07T07:07:47.371Z,848.00
2018-07-07T07:08:47.371Z,856.00
2018-07-07T07:09:47.346Z,872.00
2018-07-07T07:10:47.335Z,876.00
2018-07-07T07:11:47.332Z,884.00
2018-07-07T07:12:47.301Z,896.00
2018-07-07T07:13:47.296Z,908.00
2018-07-07T07:14:47.274Z,924.00
2018-07-07T07:15:47.253Z,944.00
2018-07-07T07:16:47.243Z,956.00
2018-07-07T07:17:47.224Z,976.00
2018-07-07T07:18:47.215Z,1000.00
2018-07-07T07:19:47.286Z,1012.00
2018-07-07T07:20:47.186Z,1016.00
2018-07-07T07:21:47.172Z,1040.00
2018-07-07T07:22:47.259Z,1060.00
2018-07-07T07:23:47.152Z,1092.00
2018-07-07T07:24:47.175Z,1112.00
2018-07-07T07:25:47.114Z,1144.00
2018-07-07T07:26:47.100Z,1172.00
2018-07-07T07:27:47.085Z,1224.00
2018-07-07T07:28:47.076Z,1236.00
2018-07-07T07:29:47.053Z,1284.00
2018-07-07T07:30:47.041Z,1128.00
2018-07-07T07:31:47.025Z,1148.00
2018-07-07T07:32:47.010Z,1260.00
2018-07-07T07:33:46.997Z,1236.00
2018-07-07T07:34:46.985Z,1476.00
2018-07-07T07:35:46.969Z,1532.00
2018-07-07T07:36:46.972Z,1248.00
2018-07-07T07:37:46.949Z,1392.00
2018-07-07T07:38:46.933Z,1544.00
2018-07-07T07:39:46.930Z,1280.00
2018-07-07T07:40:46.904Z,1596.00
2018-07-07T07:41:46.888Z,1240.00
2018-07-07T07:42:46.875Z,1148.00
2018-07-07T07:43:46.864Z,1684.00
2018-07-07T07:44:46.851Z,1672.00
2018-07-07T07:45:46.829Z,1680.00
2018-07-07T07:46:46.833Z,1760.00
2018-07-07T07:47:46.800Z,1668.00
2018-07-07T07:48:46.789Z,1764.00
2018-07-07T07:49:46.827Z,1844.00
2018-07-07T07:50:46.760Z,1880.00
2018-07-07T07:51:46.745Z,1904.00
2018-07-07T07:52:46.760Z,1896.00
2018-07-07T07:53:46.725Z,1952.00
2018-07-07T07:54:46.714Z,1984.00
2018-07-07T07:55:46.696Z,1904.00
2018-07-07T07:56:46.685Z,1956.00
2018-07-07T07:57:46.669Z,2020.00
2018-07-07T07:58:46.656Z,2072.00
2018-07-07T07:59:46.637Z,2128.00
2018-07-07T08:00:46.625Z,2128.00
2018-07-07T08:01:46.609Z,2184.00
2018-07-07T08:02:46.695Z,2188.00
2018-07-07T08:03:46.581Z,2240.00
2018-07-07T08:04:46.627Z,2236.00
2018-07-07T08:05:46.555Z,2264.00
2018-07-07T08:06:46.542Z,2252.00
2018-07-07T08:07:46.530Z,2248.00
2018-07-07T08:08:46.519Z,2316.00
2018-07-07T08:09:46.517Z,2348.00
2018-07-07T08:10:46.489Z,2364.00
2018-07-07T08:11:46.481Z,2360.00
2018-07-07T08:12:46.475Z,2404.00
2018-07-07T08:13:46.451Z,2440.00
2018-07-07T08:14:46.446Z,2460.00
2018-07-07T08:15:46.432Z,2452.00
2018-07-07T08:16:46.415Z,2452.00
2018-07-07T08:17:46.395Z,2464.00
2018-07-07T08:18:46.383Z,2476.00
2018-07-07T08:19:46.373Z,2496.00
2018-07-07T08:20:46.356Z,2516.00
2018-07-07T08:21:46.343Z,2496.00
2018-07-07T08:22:46.334Z,2460.00
2018-07-07T08:23:46.322Z,2512.00
2018-07-07T08:24:46.301Z,2516.00
2018-07-07T08:25:46.294Z,2512.00
2018-07-07T08:26:46.330Z,2516.00
2018-07-07T08:27:46.263Z,2512.00
2018-07-07T08:28:46.251Z,2540.00
2018-07-07T08:29:46.238Z,2556.00
2018-07-07T08:30:46.226Z,2544.00
2018-07-07T08:31:46.216Z,2584.00
2018-07-07T08:32:46.211Z,2600.00
2018-07-07T08:33:46.194Z,2576.00
2018-07-07T08:34:46.178Z,2576.00
2018-07-07T08:35:46.171Z,2580.00
2018-07-07T08:36:46.151Z,2520.00
2018-07-07T08:37:46.137Z,2484.00
2018-07-07T08:38:46.125Z,2384.00
2018-07-07T08:39:46.116Z,2428.00
2018-07-07T08:40:46.097Z,2524.00
2018-07-07T08:41:46.137Z,2540.00
2018-07-07T08:42:46.080Z,2540.00
2018-07-07T08:43:46.056Z,2596.00
2018-07-07T08:44:46.046Z,2592.00
2018-07-07T08:45:46.083Z,2592.00
2018-07-07T08:46:46.030Z,2640.00
2018-07-07T08:47:46.018Z,2692.00
2018-07-07T08:48:45.997Z,2764.00
2018-07-07T08:49:45.987Z,2768.00
2018-07-07T08:50:45.970Z,2776.00
2018-07-07T08:51:45.954Z,2768.00
2018-07-07T08:52:45.943Z,2692.00
2018-07-07T08:53:45.931Z,2676.00
2018-07-07T08:54:45.928Z,2728.00
2018-07-07T08:55:45.906Z,2728.00
2018-07-07T08:56:45.895Z,2744.00
2018-07-07T08:57:45.881Z,2760.00
2018-07-07T08:58:45.876Z,2780.00
2018-07-07T08:59:45.853Z,2876.00
2018-07-07T09:00:45.843Z,2876.00
2018-07-07T09:01:45.845Z,2832.00
2018-07-07T09:02:45.822Z,2824.00
2018-07-07T09:03:45.805Z,2844.00
2018-07-07T09:04:45.792Z,2792.00
2018-07-07T09:05:45.777Z,2792.00
2018-07-07T09:06:45.768Z,2876.00
2018-07-07T09:07:45.776Z,2844.00
2018-07-07T09:08:45.740Z,2956.00
2018-07-07T09:09:45.732Z,2916.00
2018-07-07T09:10:45.719Z,2960.00
2018-07-07T09:11:45.705Z,3016.00
2018-07-07T09:12:45.704Z,2708.00
2018-07-07T09:13:45.685Z,2360.00
2018-07-07T09:14:45.673Z,2812.00
2018-07-07T09:15:45.662Z,2824.00
2018-07-07T09:16:45.655Z,2840.00
2018-07-07T09:17:45.639Z,2812.00
2018-07-07T09:18:45.627Z,2908.00
2018-07-07T09:19:45.607Z,2924.00
2018-07-07T09:20:45.597Z,2852.00
2018-07-07T09:21:45.591Z,2888.00
2018-07-07T09:22:45.600Z,2928.00
2018-07-07T09:23:45.559Z,2952.00
2018-07-07T09:24:45.550Z,2968.00
2018-07-07T09:25:45.534Z,2968.00
2018-07-07T09:26:45.521Z,2976.00
2018-07-07T09:27:45.505Z,2972.00
2018-07-07T09:28:45.497Z,2892.00
2018-07-07T09:29:45.482Z,2844.00
2018-07-07T09:30:45.522Z,2892.00
2018-07-07T09:31:45.464Z,2972.00
2018-07-07T09:32:45.448Z,3012.00
2018-07-07T09:33:45.437Z,3004.00
2018-07-07T09:34:45.435Z,2996.00
2018-07-07T09:35:45.409Z,2996.00
2018-07-07T09:36:45.396Z,3012.00
2018-07-07T09:37:45.386Z,3044.00
2018-07-07T09:38:45.382Z,3004.00
2018-07-07T09:39:45.362Z,2996.00
2018-07-07T09:40:45.352Z,3044.00
2018-07-07T09:41:45.348Z,3040.00
2018-07-07T09:42:45.332Z,3040.00
2018-07-07T09:43:45.323Z,3028.00
2018-07-07T09:44:45.300Z,3052.00
2018-07-07T09:45:45.288Z,3024.00
2018-07-07T09:46:45.278Z,3016.00
2018-07-07T09:47:45.262Z,3004.00
2018-07-07T09:48:45.253Z,3048.00
2018-07-07T09:49:45.239Z,3028.00
2018-07-07T09:50:45.227Z,3032.00
2018-07-07T09:51:45.210Z,3060.00
2018-07-07T09:52:45.204Z,3076.00
2018-07-07T09:53:45.196Z,3048.00
2018-07-07T09:54:45.175Z,2988.00
2018-07-07T09:55:45.168Z,3016.00
2018-07-07T09:56:45.164Z,3020.00
2018-07-07T09:57:45.139Z,3036.00
2018-07-07T09:58:45.125Z,3028.00
2018-07-07T09:59:45.114Z,3048.00
2018-07-07T10:00:45.107Z,3032.00
2018-07-07T10:01:45.132Z,3020.00
2018-07-07T10:02:45.094Z,3056.00
2018-07-07T10:03:45.072Z,3052.00
2018-07-07T10:04:45.063Z,3048.00
2018-07-07T10:05:45.116Z,3060.00
2018-07-07T10:06:45.050Z,3060.00
2018-07-07T10:07:45.098Z,3036.00
2018-07-07T10:08:45.010Z,3036.00
2018-07-07T10:09:44.996Z,3032.00
2018-07-07T10:10:44.985Z,3012.00
2018-07-07T10:11:44.975Z,3020.00
2018-07-07T10:12:44.965Z,3024.00
2018-07-07T10:13:44.945Z,2988.00
2018-07-07T10:14:44.938Z,3064.00
2018-07-07T10:15:44.922Z,3056.00
2018-07-07T10:16:44.925Z,3076.00
2018-07-07T10:17:44.904Z,3088.00
2018-07-07T10:18:44.893Z,3088.00
2018-07-07T10:19:44.879Z,3080.00
2018-07-07T10:20:44.869Z,3060.00
2018-07-07T10:21:44.909Z,3072.00
2018-07-07T10:22:44.841Z,3020.00
2018-07-07T10:23:44.830Z,3060.00
2018-07-07T10:24:44.823Z,3048.00
2018-07-07T10:25:44.810Z,3044.00
2018-07-07T10:26:44.794Z,3024.00
2018-07-07T10:27:44.784Z,2892.00
2018-07-07T10:28:44.768Z,3040.00
2018-07-07T10:29:44.762Z,3020.00
2018-07-07T10:30:44.751Z,3020.00
2018-07-07T10:31:44.732Z,3012.00
2018-07-07T10:32:44.722Z,3012.00
2018-07-07T10:33:44.723Z,3052.00
2018-07-07T10:34:44.695Z,3040.00
2018-07-07T10:35:44.685Z,3028.00
2018-07-07T10:36:44.677Z,3020.00
2018-07-07T10:37:44.736Z,3024.00
2018-07-07T10:38:44.648Z,3020.00
2018-07-07T10:39:44.643Z,3048.00
2018-07-07T10:40:44.640Z,3028.00
2018-07-07T10:41:44.620Z,3064.00
2018-07-07T10:42:44.604Z,3136.00
2018-07-07T10:43:44.594Z,2468.00
2018-07-07T10:44:44.628Z,3068.00
2018-07-07T10:45:44.642Z,3020.00
2018-07-07T10:46:44.562Z,2016.00
2018-07-07T10:47:44.556Z,3000.00
2018-07-07T10:48:44.538Z,2956.00
2018-07-07T10:49:44.533Z,2988.00
2018-07-07T10:50:44.513Z,3024.00
2018-07-07T10:51:44.508Z,3044.00
2018-07-07T10:52:44.489Z,3012.00
2018-07-07T10:53:44.477Z,3000.00
2018-07-07T10:54:44.465Z,3008.00
2018-07-07T10:55:44.453Z,3048.00
2018-07-07T10:56:44.445Z,3000.00
2018-07-07T10:57:44.438Z,3036.00
2018-07-07T10:58:44.433Z,3060.00
2018-07-07T10:59:44.414Z,3052.00
2018-07-07T11:00:44.399Z,3032.00
2018-07-07T11:01:44.389Z,3040.00
2018-07-07T11:02:44.376Z,3028.00
2018-07-07T11:03:44.366Z,3076.00
2018-07-07T11:04:44.358Z,3104.00
2018-07-07T11:05:44.346Z,3020.00
2018-07-07T11:06:44.331Z,3024.00
2018-07-07T11:07:44.318Z,3080.00
2018-07-07T11:08:44.310Z,3072.00
2018-07-07T11:09:44.296Z,3124.00
2018-07-07T11:10:44.287Z,3088.00
2018-07-07T11:11:44.299Z,3096.00
2018-07-07T11:12:44.262Z,3128.00
2018-07-07T11:13:44.262Z,3116.00
2018-07-07T11:14:44.259Z,3132.00
2018-07-07T11:15:44.231Z,3092.00
2018-07-07T11:16:44.225Z,3136.00
2018-07-07T11:17:44.336Z,3160.00
2018-07-07T11:18:44.201Z,3040.00
2018-07-07T11:19:44.184Z,1580.00
2018-07-07T11:20:44.183Z,3140.00
2018-07-07T11:21:44.166Z,3180.00
2018-07-07T11:22:44.168Z,3192.00
2018-07-07T11:23:44.146Z,3172.00
2018-07-07T11:24:44.133Z,3116.00
2018-07-07T11:25:44.126Z,3160.00
2018-07-07T11:26:44.110Z,3192.00
2018-07-07T11:27:44.096Z,3212.00
2018-07-07T11:28:44.085Z,3228.00
2018-07-07T11:29:44.129Z,3220.00
2018-07-07T11:30:44.063Z,3204.00
2018-07-07T11:31:44.061Z,3184.00
2018-07-07T11:32:44.041Z,3116.00
2018-07-07T11:33:44.034Z,3252.00
2018-07-07T11:34:44.020Z,3208.00
2018-07-07T11:35:44.013Z,3244.00
2018-07-07T11:36:44.250Z,3244.00
2018-07-07T11:37:43.988Z,3236.00
2018-07-07T11:38:43.996Z,3236.00
2018-07-07T11:39:43.965Z,3216.00
2018-07-07T11:40:43.955Z,3008.00
2018-07-07T11:41:43.941Z,3144.00
2018-07-07T11:42:43.937Z,3192.00
2018-07-07T11:43:43.917Z,3148.00
2018-07-07T11:44:43.908Z,3192.00
2018-07-07T11:45:43.904Z,3196.00
2018-07-07T11:46:43.888Z,3196.00
2018-07-07T11:47:43.889Z,3196.00
2018-07-07T11:48:43.872Z,3156.00
2018-07-07T11:49:43.853Z,3228.00
2018-07-07T11:50:43.842Z,3284.00
2018-07-07T11:51:43.829Z,3164.00
2018-07-07T11:52:43.821Z,3132.00
2018-07-07T11:53:43.810Z,2956.00
2018-07-07T11:54:43.796Z,3208.00
2018-07-07T11:55:43.792Z,3244.00
2018-07-07T11:56:43.775Z,3336.00
2018-07-07T11:57:43.824Z,3352.00
2018-07-07T11:58:43.760Z,2972.00
2018-07-07T11:59:43.742Z,2660.00
2018-07-07T12:00:43.738Z,3336.00
2018-07-07T12:01:43.719Z,3376.00
2018-07-07T12:02:43.710Z,3292.00
2018-07-07T12:03:43.698Z,3360.00
2018-07-07T12:04:43.862Z,3328.00
2018-07-07T12:05:43.676Z,3300.00
2018-07-07T12:06:43.666Z,3024.00
2018-07-07T12:07:43.655Z,3088.00
2018-07-07T12:08:43.656Z,3028.00
2018-07-07T12:09:43.635Z,3016.00
2018-07-07T12:10:43.622Z,3056.00
2018-07-07T12:11:43.685Z,1856.00
2018-07-07T12:12:43.600Z,2984.00
2018-07-07T12:13:43.677Z,2916.00
2018-07-07T12:14:43.578Z,2872.00
2018-07-07T12:15:43.578Z,2876.00
2018-07-07T12:16:43.554Z,2888.00
2018-07-07T12:17:43.543Z,2800.00
2018-07-07T12:18:43.545Z,2824.00
2018-07-07T12:19:43.529Z,2944.00
2018-07-07T12:20:43.513Z,2952.00
2018-07-07T12:21:43.506Z,2952.00
2018-07-07T12:22:43.492Z,2844.00
2018-07-07T12:23:43.476Z,2884.00
2018-07-07T12:24:43.531Z,2900.00
2018-07-07T12:25:43.456Z,2536.00
2018-07-07T12:26:43.447Z,2616.00
2018-07-07T12:27:43.436Z,2620.00
2018-07-07T12:28:43.423Z,2948.00
2018-07-07T12:29:43.431Z,2960.00
2018-07-07T12:30:43.403Z,2836.00
2018-07-07T12:31:43.398Z,2932.00
2018-07-07T12:32:43.377Z,2960.00